Time;durP1;ratioP1;P1;durP2;ratioP2;P2;SDS_P1;SDS_P2;PMS_P1;PMS_P2;Temp;Humidity;BMP_temperature;BMP_pressure;BME280_temperature;BME280_humidity;BME280_pressure;Samples;Min_cycle;Max_cycle;Signal;HPM_P1;HPM_P2
2023/08/06 00:03:02;;;;;;;8.10;4.22;;;;;;;;;;6063605;29;20301;-79
2023/08/06 00:06:06;;;;;;;14.10;4.55;;;;;;;;;;6050128;29;20491;-79
2023/08/06 00:09:10;;;;;;;8.35;5.00;;;;;;;;;;6049743;29;20304;-79
2023/08/06 00:12:13;;;;;;;13.73;4.80;;;;;;;;;;6031106;29;20298;-78
2023/08/06 00:15:17;;;;;;;17.92;4.70;;;;;;;;;;6026640;29;20299;-79
2023/08/06 00:18:22;;;;;;;15.77;4.57;;;;;;;;;;6026755;29;20299;-78
2023/08/06 00:21:26;;;;;;;18.98;4.60;;;;;;;;;;6026939;29;20317;-77
2023/08/06 00:24:30;;;;;;;20.95;4.97;;;;;;;;;;6022268;29;20511;-77
2023/08/06 00:27:34;;;;;;;15.43;5.03;;;;;;;;;;6025096;29;20668;-77
2023/08/06 00:30:38;;;;;;;15.25;5.20;;;;;;;;;;6026860;29;20476;-77
2023/08/06 00:33:43;;;;;;;12.15;5.00;;;;;;;;;;6041356;29;20520;-78
2023/08/06 00:36:47;;;;;;;10.93;5.07;;;;;;;;;;6025910;29;20491;-78
2023/08/06 00:39:51;;;;;;;10.52;4.95;;;;;;;;;;6040653;29;20471;-77
2023/08/06 00:42:55;;;;;;;6.35;5.03;;;;;;;;;;6025625;29;20503;-79
2023/08/06 00:45:59;;;;;;;13.10;5.20;;;;;;;;;;6026995;29;20468;-78
2023/08/06 00:49:04;;;;;;;14.60;5.07;;;;;;;;;;6040365;29;20467;-78
2023/08/06 00:52:09;;;;;;;21.05;5.43;;;;;;;;;;6026812;29;20764;-78
2023/08/06 00:55:13;;;;;;;21.33;5.22;;;;;;;;;;6026424;29;20541;-78
2023/08/06 00:58:17;;;;;;;21.25;6.20;;;;;;;;;;6040452;29;20475;-78
2023/08/06 01:01:21;;;;;;;18.77;5.40;;;;;;;;;;6026164;29;20479;-78
2023/08/06 01:04:26;;;;;;;20.02;5.85;;;;;;;;;;6040196;29;20581;-78
2023/08/06 01:07:41;;;;;;;11.32;5.10;;;;;;;;;;6039521;29;20479;-78
2023/08/06 01:10:56;;;;;;;6.18;4.63;;;;;;;;;;6039397;29;20301;-78
2023/08/06 01:14:05;;;;;;;7.50;4.15;;;;;;;;;;6050876;29;20322;-78
2023/08/06 01:17:09;;;;;;;5.80;3.63;;;;;;;;;;6046713;29;20313;-79
2023/08/06 01:20:14;;;;;;;5.47;3.58;;;;;;;;;;6048232;29;20298;-77
2023/08/06 01:23:20;;;;;;;8.13;4.15;;;;;;;;;;6047607;29;20297;-77
2023/08/06 01:26:29;;;;;;;4.93;4.20;;;;;;;;;;6062144;29;20605;-77
2023/08/06 01:29:36;;;;;;;5.28;3.78;;;;;;;;;;6047685;29;20298;-77
2023/08/06 01:32:44;;;;;;;11.45;3.80;;;;;;;;;;6047597;29;20298;-77
2023/08/06 01:35:49;;;;;;;4.35;3.58;;;;;;;;;;6061870;29;20433;-77
2023/08/06 01:38:55;;;;;;;11.13;4.22;;;;;;;;;;6047215;29;20298;-77
2023/08/06 01:41:59;;;;;;;11.55;4.65;;;;;;;;;;6061467;29;20478;-79
2023/08/06 01:45:02;;;;;;;12.82;4.15;;;;;;;;;;6061632;29;20558;-78
2023/08/06 01:48:06;;;;;;;10.23;4.20;;;;;;;;;;6047289;29;20586;-78
2023/08/06 01:51:10;;;;;;;5.97;4.43;;;;;;;;;;6062196;29;20298;-78
2023/08/06 01:54:16;;;;;;;8.65;4.22;;;;;;;;;;6046713;29;20297;-78
2023/08/06 01:57:20;;;;;;;7.10;4.50;;;;;;;;;;6047565;29;20297;-78
2023/08/06 02:00:25;;;;;;;13.13;4.80;;;;;;;;;;6061231;29;20290;-78
2023/08/06 02:03:29;;;;;;;11.25;4.07;;;;;;;;;;6060148;29;20321;-78
2023/08/06 02:06:33;;;;;;;11.85;4.63;;;;;;;;;;6062019;29;20294;-77
2023/08/06 02:09:38;;;;;;;6.72;4.10;;;;;;;;;;6045805;29;20601;-77
2023/08/06 02:12:41;;;;;;;7.63;4.20;;;;;;;;;;6037978;29;20287;-77
2023/08/06 02:15:47;;;;;;;6.40;4.00;;;;;;;;;;6038528;29;20287;-77
2023/08/06 02:18:51;;;;;;;7.85;4.30;;;;;;;;;;6023532;29;20298;-77
2023/08/06 02:21:55;;;;;;;7.97;4.30;;;;;;;;;;6023885;29;20586;-78
2023/08/06 02:25:00;;;;;;;7.13;4.05;;;;;;;;;;6037633;29;20306;-78
2023/08/06 02:28:05;;;;;;;7.80;4.20;;;;;;;;;;6022593;29;20303;-77
2023/08/06 02:31:08;;;;;;;3.92;3.63;;;;;;;;;;6024081;29;20450;-78
2023/08/06 02:34:13;;;;;;;4.65;4.22;;;;;;;;;;6025949;29;20589;-77
2023/08/06 02:37:17;;;;;;;8.40;4.45;;;;;;;;;;6037987;29;20318;-77
2023/08/06 02:40:23;;;;;;;5.68;4.10;;;;;;;;;;6037374;29;20302;-77
2023/08/06 02:43:27;;;;;;;4.60;4.20;;;;;;;;;;6037100;29;20302;-77
2023/08/06 02:46:31;;;;;;;6.07;3.90;;;;;;;;;;6023524;29;20325;-77
2023/08/06 02:49:35;;;;;;;4.28;3.95;;;;;;;;;;6023047;29;20301;-77
2023/08/06 02:52:40;;;;;;;6.60;4.13;;;;;;;;;;6037070;29;20294;-76
2023/08/06 02:55:48;;;;;;;4.13;3.83;;;;;;;;;;6037431;29;20606;-77
2023/08/06 02:58:55;;;;;;;4.05;3.83;;;;;;;;;;6036842;29;20307;-77
2023/08/06 03:02:09;;;;;;;8.15;4.15;;;;;;;;;;6042770;29;20302;-76
2023/08/06 03:05:31;;;;;;;6.70;4.35;;;;;;;;;;6059148;29;20475;-76
2023/08/06 03:08:35;;;;;;;4.47;4.13;;;;;;;;;;6044292;29;20314;-77
2023/08/06 03:11:40;;;;;;;4.97;4.05;;;;;;;;;;6059977;29;20297;-78
2023/08/06 03:14:49;;;;;;;7.57;4.45;;;;;;;;;;6067102;29;20482;-77
2023/08/06 03:17:57;;;;;;;6.75;3.95;;;;;;;;;;6067885;29;20301;-77
2023/08/06 03:21:01;;;;;;;7.00;4.45;;;;;;;;;;6039884;29;20492;-77
2023/08/06 03:24:06;;;;;;;4.72;4.05;;;;;;;;;;6024013;29;20310;-77
2023/08/06 03:27:14;;;;;;;6.18;4.22;;;;;;;;;;6023358;29;20317;-77
2023/08/06 03:30:19;;;;;;;8.98;4.15;;;;;;;;;;6023768;29;20551;-77
2023/08/06 03:33:24;;;;;;;4.25;3.97;;;;;;;;;;6028895;29;20520;-77
2023/08/06 03:36:29;;;;;;;4.50;4.10;;;;;;;;;;6043910;29;20273;-77
2023/08/06 03:39:32;;;;;;;5.97;4.07;;;;;;;;;;6071907;29;20313;-77
2023/08/06 03:42:39;;;;;;;3.83;3.63;;;;;;;;;;6072185;29;20265;-78
2023/08/06 03:45:43;;;;;;;6.40;4.25;;;;;;;;;;6072933;29;20491;-77
2023/08/06 03:48:47;;;;;;;5.93;3.97;;;;;;;;;;6071829;29;20313;-77
2023/08/06 03:51:50;;;;;;;7.85;4.65;;;;;;;;;;6071767;29;20485;-78
2023/08/06 03:54:55;;;;;;;4.43;4.03;;;;;;;;;;6072943;29;20305;-78
2023/08/06 03:58:00;;;;;;;5.88;4.30;;;;;;;;;;6071199;29;20504;-78
2023/08/06 04:01:04;;;;;;;5.13;3.88;;;;;;;;;;6072320;29;20297;-78
2023/08/06 04:04:17;;;;;;;4.70;4.35;;;;;;;;;;6063407;29;20306;-78
2023/08/06 04:07:21;;;;;;;4.43;4.05;;;;;;;;;;6063859;29;20527;-78
2023/08/06 04:10:25;;;;;;;4.60;4.28;;;;;;;;;;6042334;29;20330;-78
2023/08/06 04:13:30;;;;;;;5.43;4.45;;;;;;;;;;6026647;29;20298;-78
2023/08/06 04:16:34;;;;;;;4.40;4.10;;;;;;;;;;6044242;29;20301;-78
2023/08/06 04:19:38;;;;;;;5.00;4.40;;;;;;;;;;6039794;29;20302;-78
2023/08/06 04:22:41;;;;;;;4.32;4.03;;;;;;;;;;6025563;29;20310;-78
2023/08/06 04:25:46;;;;;;;4.95;4.30;;;;;;;;;;6039815;29;20298;-78
2023/08/06 04:28:51;;;;;;;4.07;3.70;;;;;;;;;;6040089;29;20302;-78
2023/08/06 04:31:56;;;;;;;4.03;3.85;;;;;;;;;;6025060;29;20298;-79
2023/08/06 04:35:00;;;;;;;4.88;4.57;;;;;;;;;;6026142;29;20298;-78
2023/08/06 04:38:04;;;;;;;4.72;4.30;;;;;;;;;;6040030;29;20474;-79
2023/08/06 04:41:08;;;;;;;4.57;4.20;;;;;;;;;;6026584;29;20594;-79
2023/08/06 04:44:13;;;;;;;7.65;5.35;;;;;;;;;;6024774;29;20306;-78
2023/08/06 04:47:17;;;;;;;6.35;4.70;;;;;;;;;;6040363;29;20302;-78
2023/08/06 04:50:21;;;;;;;4.63;4.35;;;;;;;;;;6025832;29;20302;-78
2023/08/06 04:53:25;;;;;;;5.18;4.32;;;;;;;;;;6027761;29;20306;-78
2023/08/06 04:56:29;;;;;;;4.85;4.45;;;;;;;;;;6026718;29;20567;-78
2023/08/06 04:59:34;;;;;;;5.07;4.65;;;;;;;;;;6026179;29;20301;-78
2023/08/06 05:02:38;;;;;;;4.93;4.53;;;;;;;;;;6031801;29;20330;-78
2023/08/06 05:05:42;;;;;;;5.20;4.70;;;;;;;;;;6047883;29;20293;-78
2023/08/06 05:08:46;;;;;;;4.75;4.47;;;;;;;;;;6048117;29;20577;-79
2023/08/06 05:11:50;;;;;;;5.63;4.45;;;;;;;;;;6066617;29;20305;-78
2023/08/06 05:14:56;;;;;;;4.63;4.32;;;;;;;;;;6070033;29;20304;-78
2023/08/06 05:17:59;;;;;;;6.07;4.18;;;;;;;;;;6071088;29;20413;-79
2023/08/06 05:21:03;;;;;;;4.72;4.40;;;;;;;;;;6071569;29;20293;-78
2023/08/06 05:24:07;;;;;;;4.65;4.30;;;;;;;;;;6069100;29;20316;-78
2023/08/06 05:27:11;;;;;;;6.93;4.32;;;;;;;;;;6071308;29;20305;-78
2023/08/06 05:30:16;;;;;;;6.82;4.35;;;;;;;;;;6070522;29;20439;-76
2023/08/06 05:33:20;;;;;;;6.28;4.22;;;;;;;;;;6070528;29;20289;-76
2023/08/06 05:36:24;;;;;;;4.20;3.90;;;;;;;;;;6070796;29;20391;-76
2023/08/06 05:39:30;;;;;;;4.57;4.10;;;;;;;;;;6069496;29;20297;-78
2023/08/06 05:42:34;;;;;;;3.67;3.47;;;;;;;;;;6070665;29;20403;-78
2023/08/06 05:45:39;;;;;;;3.70;3.50;;;;;;;;;;6070579;29;20309;-78
2023/08/06 05:48:43;;;;;;;5.30;4.88;;;;;;;;;;6070306;29;20292;-78
2023/08/06 05:51:48;;;;;;;4.10;3.80;;;;;;;;;;6070480;29;20309;-77
2023/08/06 05:54:51;;;;;;;5.68;3.58;;;;;;;;;;6069820;29;20375;-76
2023/08/06 05:57:55;;;;;;;4.15;3.25;;;;;;;;;;6069915;29;20293;-76
2023/08/06 06:01:00;;;;;;;3.65;3.47;;;;;;;;;;6069073;29;20305;-77
2023/08/06 06:04:04;;;;;;;3.80;3.58;;;;;;;;;;6069343;29;20293;-80
2023/08/06 06:07:08;;;;;;;5.10;3.70;;;;;;;;;;6070182;29;20301;-78
2023/08/06 06:10:12;;;;;;;4.60;4.20;;;;;;;;;;6064365;29;20389;-79
2023/08/06 06:13:16;;;;;;;3.10;3.00;;;;;;;;;;6047289;29;20578;-76
2023/08/06 06:16:21;;;;;;;4.40;3.33;;;;;;;;;;6047581;29;20298;-78
2023/08/06 06:19:25;;;;;;;5.50;3.63;;;;;;;;;;6047359;29;20293;-79
2023/08/06 06:22:31;;;;;;;3.60;3.40;;;;;;;;;;6047521;29;20306;-79
2023/08/06 06:25:35;;;;;;;3.97;3.60;;;;;;;;;;6047393;29;20293;-79
2023/08/06 06:28:39;;;;;;;4.13;3.70;;;;;;;;;;6046364;29;20309;-79
2023/08/06 06:31:44;;;;;;;4.03;3.40;;;;;;;;;;6046861;29;20297;-79
2023/08/06 06:34:48;;;;;;;3.40;3.05;;;;;;;;;;6046045;29;20494;-79
2023/08/06 06:37:52;;;;;;;4.70;3.35;;;;;;;;;;6046161;29;20573;-79
2023/08/06 06:40:56;;;;;;;3.08;2.97;;;;;;;;;;6046756;29;20298;-79
2023/08/06 06:43:59;;;;;;;3.20;3.10;;;;;;;;;;6046165;29;20297;-79
2023/08/06 06:47:05;;;;;;;4.90;3.00;;;;;;;;;;6046521;29;20485;-79
2023/08/06 06:50:09;;;;;;;2.90;2.67;;;;;;;;;;6046027;29;20309;-79
2023/08/06 06:53:13;;;;;;;4.50;2.78;;;;;;;;;;6046113;29;20299;-79
2023/08/06 06:56:17;;;;;;;4.30;3.42;;;;;;;;;;6046380;29;20537;-79
2023/08/06 06:59:21;;;;;;;3.83;2.80;;;;;;;;;;6045861;29;20467;-77
2023/08/06 07:02:26;;;;;;;3.53;3.05;;;;;;;;;;6045943;29;20318;-77
2023/08/06 07:05:30;;;;;;;4.47;2.95;;;;;;;;;;6045045;29;20298;-77
2023/08/06 07:08:33;;;;;;;2.58;2.47;;;;;;;;;;6045404;29;20305;-78
2023/08/06 07:11:37;;;;;;;3.10;2.90;;;;;;;;;;6062437;29;20305;-78
2023/08/06 07:14:41;;;;;;;5.65;3.55;;;;;;;;;;6069467;29;20592;-77
2023/08/06 07:17:46;;;;;;;7.93;3.17;;;;;;;;;;6069083;29;20306;-78
2023/08/06 07:20:50;;;;;;;3.30;3.10;;;;;;;;;;6068834;29;20297;-78
2023/08/06 07:23:54;;;;;;;6.13;3.60;;;;;;;;;;6068505;29;20293;-77
2023/08/06 07:26:58;;;;;;;4.70;3.08;;;;;;;;;;6069013;29;20313;-77
2023/08/06 07:30:01;;;;;;;3.40;3.10;;;;;;;;;;6068697;29;20305;-78
2023/08/06 07:33:06;;;;;;;2.25;2.25;;;;;;;;;;6069045;29;20304;-77
2023/08/06 07:36:12;;;;;;;3.88;3.20;;;;;;;;;;6067924;29;20297;-77
2023/08/06 07:39:17;;;;;;;6.13;3.20;;;;;;;;;;6069051;29;20301;-76
2023/08/06 07:42:21;;;;;;;6.93;2.90;;;;;;;;;;6069453;29;20310;-78
2023/08/06 07:45:26;;;;;;;4.78;3.20;;;;;;;;;;6069290;29;20300;-79
2023/08/06 07:48:32;;;;;;;3.42;3.13;;;;;;;;;;6068932;29;20486;-79
2023/08/06 07:51:35;;;;;;;4.78;3.30;;;;;;;;;;6069700;29;20254;-79
2023/08/06 07:54:39;;;;;;;6.10;3.70;;;;;;;;;;6067964;29;20297;-79
2023/08/06 07:57:43;;;;;;;3.53;3.28;;;;;;;;;;6070294;29;20290;-79
2023/08/06 08:00:47;;;;;;;3.72;3.47;;;;;;;;;;6069941;29;20415;-79
2023/08/06 08:03:53;;;;;;;4.85;3.50;;;;;;;;;;6067584;29;20477;-78
2023/08/06 08:06:56;;;;;;;4.18;3.70;;;;;;;;;;6068610;29;20293;-79
2023/08/06 08:10:00;;;;;;;3.25;2.95;;;;;;;;;;6063903;29;20297;-77
2023/08/06 08:13:05;;;;;;;4.80;3.17;;;;;;;;;;6043643;29;20570;-79
2023/08/06 08:16:08;;;;;;;3.80;3.45;;;;;;;;;;6047404;29;20298;-79
2023/08/06 08:19:14;;;;;;;5.43;3.53;;;;;;;;;;6049304;29;20309;-79
2023/08/06 08:22:17;;;;;;;3.63;3.35;;;;;;;;;;6049434;29;20305;-79
2023/08/06 08:25:21;;;;;;;3.17;2.97;;;;;;;;;;6048788;29;20478;-76
2023/08/06 08:28:25;;;;;;;3.42;2.83;;;;;;;;;;6049085;29;20305;-79
2023/08/06 08:31:29;;;;;;;7.82;3.05;;;;;;;;;;6048079;29;20297;-79
2023/08/06 08:34:34;;;;;;;3.08;2.92;;;;;;;;;;6048807;29;20331;-77
2023/08/06 08:37:38;;;;;;;2.92;2.80;;;;;;;;;;6049263;29;20301;-79
2023/08/06 08:40:47;;;;;;;3.30;3.10;;;;;;;;;;6048644;29;20301;-77
2023/08/06 08:43:51;;;;;;;3.60;3.30;;;;;;;;;;6048319;29;20477;-78
2023/08/06 08:46:56;;;;;;;4.15;3.08;;;;;;;;;;6049002;29;20297;-78
2023/08/06 08:50:02;;;;;;;3.20;3.00;;;;;;;;;;6047950;29;20625;-77
2023/08/06 08:53:06;;;;;;;5.53;3.13;;;;;;;;;;6048317;29;20317;-76
2023/08/06 08:56:10;;;;;;;4.45;2.92;;;;;;;;;;6048632;29;20298;-79
2023/08/06 08:59:14;;;;;;;6.25;3.20;;;;;;;;;;6048000;29;20381;-79
2023/08/06 09:02:18;;;;;;;3.80;3.20;;;;;;;;;;6048414;29;20630;-76
2023/08/06 09:05:24;;;;;;;3.33;3.08;;;;;;;;;;6048325;29;20340;-76
2023/08/06 09:08:32;;;;;;;4.05;3.22;;;;;;;;;;6048325;29;20350;-77
2023/08/06 09:11:40;;;;;;;3.35;2.95;;;;;;;;;;6064828;29;20296;-75
2023/08/06 09:14:44;;;;;;;4.28;3.05;;;;;;;;;;6071636;29;20301;-76
2023/08/06 09:17:48;;;;;;;6.43;2.83;;;;;;;;;;6071287;29;20301;-77
2023/08/06 09:20:55;;;;;;;4.57;3.08;;;;;;;;;;6071513;29;20305;-78
2023/08/06 09:24:00;;;;;;;6.18;2.97;;;;;;;;;;6071068;29;20293;-79
2023/08/06 09:27:04;;;;;;;5.65;3.30;;;;;;;;;;6070933;29;20304;-81
2023/08/06 09:30:08;;;;;;;3.47;3.17;;;;;;;;;;6070934;29;20306;-79
2023/08/06 09:33:14;;;;;;;3.85;3.17;;;;;;;;;;6069270;29;20297;-82
2023/08/06 09:36:19;;;;;;;4.15;3.30;;;;;;;;;;6072714;29;20601;-78
2023/08/06 09:39:27;;;;;;;3.70;3.22;;;;;;;;;;6053848;29;20305;-77
2023/08/06 09:42:31;;;;;;;3.53;3.05;;;;;;;;;;6047235;29;20289;-74
2023/08/06 09:45:36;;;;;;;4.18;3.30;;;;;;;;;;6046932;29;20306;-74
2023/08/06 09:48:40;;;;;;;3.83;3.50;;;;;;;;;;6047392;29;20301;-79
2023/08/06 09:51:46;;;;;;;5.50;3.63;;;;;;;;;;6047959;29;20266;-75
2023/08/06 09:54:50;;;;;;;5.25;2.95;;;;;;;;;;6047308;29;20297;-77
2023/08/06 09:57:55;;;;;;;16.52;3.38;;;;;;;;;;6045510;29;20289;-77
2023/08/06 10:00:59;;;;;;;5.25;3.20;;;;;;;;;;6045833;29;20578;-74
2023/08/06 10:04:04;;;;;;;3.65;2.60;;;;;;;;;;6054550;29;20306;-73
2023/08/06 10:07:27;;;;;;;3.33;3.10;;;;;;;;;;6066448;29;20365;-75
2023/08/06 10:10:31;;;;;;;3.80;3.33;;;;;;;;;;6064490;29;20349;-75
2023/08/06 10:13:35;;;;;;;3.30;2.90;;;;;;;;;;6067911;29;20296;-76
2023/08/06 10:16:41;;;;;;;5.82;3.55;;;;;;;;;;6069562;29;20293;-75
2023/08/06 10:19:46;;;;;;;5.18;3.67;;;;;;;;;;6049532;29;20482;-76
2023/08/06 10:23:02;;;;;;;4.75;3.10;;;;;;;;;;6045802;29;20313;-74
2023/08/06 10:26:06;;;;;;;5.68;3.42;;;;;;;;;;6047638;29;20302;-74
2023/08/06 10:29:37;;;;;;;6.63;3.35;;;;;;;;;;6062657;29;20294;-76
2023/08/06 10:32:50;;;;;;;6.15;3.22;;;;;;;;;;6046955;29;20305;-77
2023/08/06 10:36:04;;;;;;;3.78;3.30;;;;;;;;;;6066419;29;20293;-76
2023/08/06 10:39:14;;;;;;;5.57;3.85;;;;;;;;;;6067826;29;20300;-76
2023/08/06 10:42:33;;;;;;;3.95;2.92;;;;;;;;;;6061206;29;20282;-76
2023/08/06 10:45:37;;;;;;;5.25;3.33;;;;;;;;;;6045073;29;20411;-76
2023/08/06 10:48:42;;;;;;;6.50;3.10;;;;;;;;;;6045277;29;20309;-76
2023/08/06 10:51:46;;;;;;;3.40;3.20;;;;;;;;;;6029594;29;20306;-76
2023/08/06 10:54:51;;;;;;;5.13;3.28;;;;;;;;;;6046165;29;20317;-75
2023/08/06 10:57:55;;;;;;;3.78;3.03;;;;;;;;;;6045666;29;20309;-75
2023/08/06 11:01:00;;;;;;;5.60;3.45;;;;;;;;;;6064195;29;20312;-76
2023/08/06 11:04:05;;;;;;;3.00;2.90;;;;;;;;;;6071202;29;20507;-76
2023/08/06 11:07:09;;;;;;;3.75;3.33;;;;;;;;;;6072458;29;20296;-74
2023/08/06 11:10:14;;;;;;;5.20;3.22;;;;;;;;;;6065747;29;20301;-73
2023/08/06 11:13:18;;;;;;;3.75;3.40;;;;;;;;;;6047325;29;20303;-74
2023/08/06 11:16:24;;;;;;;5.38;3.40;;;;;;;;;;6050163;29;20301;-75
2023/08/06 11:19:28;;;;;;;7.43;3.95;;;;;;;;;;6048769;29;20377;-74
2023/08/06 11:22:32;;;;;;;5.07;4.07;;;;;;;;;;6048380;29;20305;-77
2023/08/06 11:25:45;;;;;;;9.65;3.90;;;;;;;;;;6048598;29;20298;-74
2023/08/06 11:28:49;;;;;;;6.90;4.10;;;;;;;;;;6048837;29;20309;-77
2023/08/06 11:31:52;;;;;;;3.95;3.40;;;;;;;;;;6049535;29;20317;-74
2023/08/06 11:34:57;;;;;;;4.35;3.67;;;;;;;;;;6065409;29;20306;-74
2023/08/06 11:38:01;;;;;;;7.63;3.83;;;;;;;;;;6070691;29;20578;-73
2023/08/06 11:41:07;;;;;;;4.15;3.92;;;;;;;;;;6070560;29;20304;-74
2023/08/06 11:44:13;;;;;;;3.90;3.65;;;;;;;;;;6070278;29;20297;-75
2023/08/06 11:47:20;;;;;;;6.65;3.97;;;;;;;;;;6069718;29;20597;-74
2023/08/06 11:50:24;;;;;;;7.43;4.45;;;;;;;;;;6068833;29;20341;-75
2023/08/06 11:53:29;;;;;;;4.53;4.05;;;;;;;;;;6073167;29;20296;-76
2023/08/06 11:56:53;;;;;;;6.68;4.55;;;;;;;;;;6075048;29;20293;-76
2023/08/06 11:59:57;;;;;;;12.10;5.07;;;;;;;;;;6072922;29;20305;-77
2023/08/06 12:03:01;;;;;;;5.03;4.32;;;;;;;;;;6063868;29;20436;-77
2023/08/06 12:06:05;;;;;;;4.90;4.43;;;;;;;;;;6064317;29;20401;-77
2023/08/06 12:09:10;;;;;;;8.30;5.10;;;;;;;;;;6050191;29;20309;-76
2023/08/06 12:12:16;;;;;;;8.35;4.40;;;;;;;;;;6050089;29;20482;-77
2023/08/06 12:15:20;;;;;;;9.40;4.70;;;;;;;;;;6049470;29;20309;-74
2023/08/06 12:18:24;;;;;;;7.90;4.57;;;;;;;;;;6049503;29;20302;-75
2023/08/06 12:21:27;;;;;;;5.55;5.05;;;;;;;;;;6049168;29;20542;-75
2023/08/06 12:24:31;;;;;;;6.47;4.95;;;;;;;;;;6049284;29;20313;-74
2023/08/06 12:27:37;;;;;;;6.38;4.97;;;;;;;;;;6049736;29;20242;-74
2023/08/06 12:30:42;;;;;;;6.63;4.82;;;;;;;;;;6049282;29;20306;-74
2023/08/06 12:33:46;;;;;;;5.35;4.80;;;;;;;;;;6041637;29;20486;-74
2023/08/06 12:36:50;;;;;;;5.95;4.75;;;;;;;;;;6026468;29;20558;-74
2023/08/06 12:39:54;;;;;;;7.90;4.88;;;;;;;;;;6026181;29;20302;-74
2023/08/06 12:42:59;;;;;;;5.65;4.43;;;;;;;;;;6040143;29;20302;-74
2023/08/06 12:46:04;;;;;;;32.38;6.25;;;;;;;;;;6026278;29;20622;-76
2023/08/06 12:49:08;;;;;;;5.38;4.57;;;;;;;;;;6025903;29;20302;-76
2023/08/06 12:52:14;;;;;;;5.53;4.82;;;;;;;;;;6026190;29;20366;-76
2023/08/06 12:55:18;;;;;;;7.60;4.55;;;;;;;;;;6025454;29;20322;-76
2023/08/06 12:58:24;;;;;;;5.57;5.00;;;;;;;;;;6025541;29;20543;-75
2023/08/06 13:01:27;;;;;;;7.22;4.80;;;;;;;;;;6025554;29;20298;-77
2023/08/06 13:04:33;;;;;;;7.70;5.30;;;;;;;;;;6044434;29;20329;-77
2023/08/06 13:07:37;;;;;;;5.40;4.97;;;;;;;;;;6048774;29;20609;-76
2023/08/06 13:10:41;;;;;;;5.32;4.93;;;;;;;;;;6057478;29;20297;-75
2023/08/06 13:13:47;;;;;;;6.53;5.13;;;;;;;;;;6071083;29;20312;-76
2023/08/06 13:16:50;;;;;;;5.65;5.15;;;;;;;;;;6071566;29;20301;-75
2023/08/06 13:19:54;;;;;;;6.97;5.25;;;;;;;;;;6071084;29;20301;-76
2023/08/06 13:23:01;;;;;;;5.40;5.00;;;;;;;;;;6069797;29;20301;-77
2023/08/06 13:26:04;;;;;;;6.40;5.50;;;;;;;;;;6070117;29;20297;-76
2023/08/06 13:29:10;;;;;;;5.43;5.00;;;;;;;;;;6071272;29;20297;-74
2023/08/06 13:32:14;;;;;;;6.25;5.40;;;;;;;;;;6071969;29;20309;-77
2023/08/06 13:35:17;;;;;;;6.20;4.60;;;;;;;;;;6042260;29;20476;-75
2023/08/06 13:38:21;;;;;;;5.82;4.70;;;;;;;;;;6024828;29;20294;-76
2023/08/06 13:41:25;;;;;;;6.70;5.03;;;;;;;;;;6025225;29;20298;-76
2023/08/06 13:44:30;;;;;;;5.47;5.00;;;;;;;;;;6024674;29;20586;-76
2023/08/06 13:47:34;;;;;;;5.97;5.20;;;;;;;;;;6024701;29;20518;-77
2023/08/06 13:50:39;;;;;;;5.55;4.82;;;;;;;;;;6024848;29;20294;-75
2023/08/06 13:53:43;;;;;;;5.70;4.97;;;;;;;;;;6024309;29;20306;-76
2023/08/06 13:56:47;;;;;;;7.65;5.43;;;;;;;;;;6025125;29;20578;-76
2023/08/06 13:59:52;;;;;;;5.60;4.95;;;;;;;;;;6024161;29;20302;-75
2023/08/06 14:02:56;;;;;;;5.50;5.00;;;;;;;;;;6024092;29;20548;-75
2023/08/06 14:06:00;;;;;;;5.43;5.00;;;;;;;;;;6024844;29;20483;-75
2023/08/06 14:09:04;;;;;;;7.28;6.53;;;;;;;;;;6022585;29;20492;-76
2023/08/06 14:12:08;;;;;;;5.90;5.30;;;;;;;;;;6064974;29;20608;-76
2023/08/06 14:15:13;;;;;;;9.48;6.07;;;;;;;;;;6067870;29;20472;-75
2023/08/06 14:18:17;;;;;;;7.97;6.20;;;;;;;;;;6068606;29;20468;-75
2023/08/06 14:21:21;;;;;;;7.47;5.70;;;;;;;;;;6070607;29;20301;-76
2023/08/06 14:24:25;;;;;;;9.68;6.13;;;;;;;;;;6069814;29;20485;-76
2023/08/06 14:27:29;;;;;;;5.65;5.25;;;;;;;;;;6069311;29;20281;-76
2023/08/06 14:30:34;;;;;;;6.80;5.72;;;;;;;;;;6069744;29;20308;-76
2023/08/06 14:33:38;;;;;;;6.20;5.70;;;;;;;;;;6061847;29;20488;-75
2023/08/06 14:36:42;;;;;;;6.05;5.43;;;;;;;;;;6046587;29;20246;-75
2023/08/06 14:39:46;;;;;;;5.78;5.40;;;;;;;;;;6046343;29;20502;-75
2023/08/06 14:42:50;;;;;;;7.15;5.68;;;;;;;;;;6046089;29;20297;-75
2023/08/06 14:45:55;;;;;;;10.07;6.00;;;;;;;;;;6046420;29;20297;-76
2023/08/06 14:48:59;;;;;;;8.45;6.15;;;;;;;;;;6046046;29;20298;-75
2023/08/06 14:52:03;;;;;;;6.13;5.60;;;;;;;;;;6046497;29;20309;-75
2023/08/06 14:55:07;;;;;;;6.35;5.30;;;;;;;;;;6046101;29;20302;-76
2023/08/06 14:58:10;;;;;;;5.60;5.13;;;;;;;;;;6046294;29;20298;-76
2023/08/06 15:01:16;;;;;;;5.18;4.72;;;;;;;;;;6046364;29;20301;-76
2023/08/06 15:04:20;;;;;;;12.20;5.50;;;;;;;;;;6037098;29;20294;-76
2023/08/06 15:07:23;;;;;;;6.80;6.20;;;;;;;;;;6023519;29;20547;-76
2023/08/06 15:10:27;;;;;;;6.18;5.57;;;;;;;;;;6030254;29;20305;-77
2023/08/06 15:13:31;;;;;;;6.97;6.45;;;;;;;;;;6044337;29;20481;-77
2023/08/06 15:16:36;;;;;;;6.97;5.63;;;;;;;;;;6046172;29;20305;-75
2023/08/06 15:19:40;;;;;;;8.45;6.40;;;;;;;;;;6044346;29;20678;-77
2023/08/06 15:22:44;;;;;;;7.33;6.67;;;;;;;;;;6044941;29;20481;-76
2023/08/06 15:25:48;;;;;;;8.27;6.53;;;;;;;;;;6045852;29;20490;-77
2023/08/06 15:28:51;;;;;;;8.13;6.50;;;;;;;;;;6050051;29;20462;-75
2023/08/06 15:31:57;;;;;;;6.55;5.90;;;;;;;;;;6051259;29;20493;-77
2023/08/06 15:35:03;;;;;;;7.45;6.60;;;;;;;;;;6040257;29;20529;-76
2023/08/06 15:38:07;;;;;;;9.05;5.10;;;;;;;;;;6027894;29;20302;-76
2023/08/06 15:41:11;;;;;;;6.03;5.50;;;;;;;;;;6027918;29;20297;-79
2023/08/06 15:44:15;;;;;;;10.32;5.68;;;;;;;;;;6027325;29;20305;-77
2023/08/06 15:47:20;;;;;;;6.35;5.85;;;;;;;;;;6027584;29;20378;-77
2023/08/06 15:50:24;;;;;;;7.00;5.28;;;;;;;;;;6026253;29;20487;-78
2023/08/06 15:53:28;;;;;;;6.40;5.22;;;;;;;;;;6027075;29;20303;-77
2023/08/06 15:56:32;;;;;;;7.40;5.60;;;;;;;;;;6041802;29;20310;-77
2023/08/06 15:59:35;;;;;;;6.10;5.53;;;;;;;;;;6026782;29;20320;-78
2023/08/06 16:02:41;;;;;;;8.73;7.10;;;;;;;;;;6032583;29;20317;-78
2023/08/06 16:05:45;;;;;;;10.95;5.93;;;;;;;;;;6049793;29;20286;-77
2023/08/06 16:08:49;;;;;;;9.32;5.53;;;;;;;;;;6049724;29;20302;-77
2023/08/06 16:11:53;;;;;;;7.55;5.80;;;;;;;;;;6068392;29;20301;-77
2023/08/06 16:14:57;;;;;;;7.32;5.07;;;;;;;;;;6072610;29;20305;-76
2023/08/06 16:18:02;;;;;;;8.90;6.07;;;;;;;;;;6072368;29;20384;-77
2023/08/06 16:21:06;;;;;;;6.45;5.80;;;;;;;;;;6073022;29;20293;-76
2023/08/06 16:24:10;;;;;;;5.93;5.43;;;;;;;;;;6072540;29;20305;-76
2023/08/06 16:27:13;;;;;;;10.75;5.97;;;;;;;;;;6072656;29;20301;-77
2023/08/06 16:30:17;;;;;;;10.23;5.78;;;;;;;;;;6072148;29;20296;-76
2023/08/06 16:33:23;;;;;;;9.85;6.40;;;;;;;;;;6067289;29;20306;-78
2023/08/06 16:36:26;;;;;;;6.38;5.78;;;;;;;;;;6049253;29;20578;-77
2023/08/06 16:39:30;;;;;;;6.90;6.05;;;;;;;;;;6048154;29;20301;-78
2023/08/06 16:42:34;;;;;;;9.55;5.40;;;;;;;;;;6050775;29;20254;-74
2023/08/06 16:45:39;;;;;;;6.18;5.68;;;;;;;;;;6048464;29;20306;-80
2023/08/06 16:48:44;;;;;;;8.27;5.93;;;;;;;;;;6048397;29;20433;-77
2023/08/06 16:51:48;;;;;;;6.68;5.47;;;;;;;;;;6049068;29;20302;-77
2023/08/06 16:54:52;;;;;;;6.47;5.88;;;;;;;;;;6048109;29;20321;-76
2023/08/06 16:57:56;;;;;;;6.47;5.85;;;;;;;;;;6048090;29;20302;-75
2023/08/06 17:01:04;;;;;;;6.78;5.32;;;;;;;;;;6048535;29;20469;-78
2023/08/06 17:04:11;;;;;;;5.93;5.40;;;;;;;;;;6047923;29;20479;-76
2023/08/06 17:07:15;;;;;;;6.13;5.57;;;;;;;;;;6048747;29;20297;-78
2023/08/06 17:10:20;;;;;;;8.43;5.63;;;;;;;;;;6054670;29;20300;-80
2023/08/06 17:13:24;;;;;;;9.88;5.50;;;;;;;;;;6071080;29;20293;-78
2023/08/06 17:16:29;;;;;;;5.97;5.55;;;;;;;;;;6071530;29;20296;-80
2023/08/06 17:19:36;;;;;;;5.50;5.18;;;;;;;;;;6071412;29;20301;-79
2023/08/06 17:22:40;;;;;;;6.38;5.35;;;;;;;;;;6071888;29;20305;-79
2023/08/06 17:25:45;;;;;;;7.35;5.88;;;;;;;;;;6070949;29;20309;-78
2023/08/06 17:28:49;;;;;;;5.80;5.40;;;;;;;;;;6070583;29;20300;-77
2023/08/06 17:31:52;;;;;;;7.85;5.43;;;;;;;;;;6070525;29;20317;-78
2023/08/06 17:34:58;;;;;;;7.32;5.70;;;;;;;;;;6053847;29;20301;-76
2023/08/06 17:38:02;;;;;;;7.03;6.35;;;;;;;;;;6047125;29;20476;-80
2023/08/06 17:41:06;;;;;;;6.80;6.20;;;;;;;;;;6047772;29;20362;-78
2023/08/06 17:44:10;;;;;;;6.15;5.60;;;;;;;;;;6046845;29;20313;-78
2023/08/06 17:47:14;;;;;;;7.65;5.88;;;;;;;;;;6047443;29;20297;-78
2023/08/06 17:50:39;;;;;;;8.95;7.70;;;;;;;;;;6044402;29;20539;-78
2023/08/06 17:53:43;;;;;;;9.10;7.30;;;;;;;;;;6045031;29;20485;-78
2023/08/06 17:56:47;;;;;;;9.45;7.35;;;;;;;;;;6044724;29;20802;-78
2023/08/06 17:59:51;;;;;;;9.35;7.40;;;;;;;;;;6045164;29;20485;-76
2023/08/06 18:02:55;;;;;;;8.02;7.28;;;;;;;;;;6044711;29;20602;-77
2023/08/06 18:06:00;;;;;;;7.80;7.10;;;;;;;;;;6045469;29;20489;-77
2023/08/06 18:09:04;;;;;;;9.43;7.40;;;;;;;;;;6044684;29;20512;-77
2023/08/06 18:12:09;;;;;;;8.73;7.10;;;;;;;;;;6065273;29;20500;-77
2023/08/06 18:15:13;;;;;;;8.40;6.68;;;;;;;;;;6067542;29;20792;-78
2023/08/06 18:18:17;;;;;;;7.83;6.90;;;;;;;;;;6068172;29;20472;-77
2023/08/06 18:21:22;;;;;;;7.93;7.00;;;;;;;;;;6068473;29;20508;-77
2023/08/06 18:24:26;;;;;;;7.60;6.78;;;;;;;;;;6067628;29;20806;-77
2023/08/06 18:27:30;;;;;;;9.82;6.93;;;;;;;;;;6067410;29;20516;-77